In Rescue
 
Open Full Screen Window  High Contrast Mode
Wind Gusting 00 knots
10
July 13, 2020 9:43 AM CDT
Weather Information
Wind Direction
  140 °
Wind Speed
  10 kt (12 mph)
Wind Gust
  00 kt (0 mph)
Altimeter
29.87 in
Visibility
10 SM
Temperature
21° C
70° F
Dewpoint
16° C
61° F
Humidity
73%
1hr Rain Fall
00.00 in.
24hr Rain Fall
00.00 in.
Sky Condition
Clear
VFR

METAR KBJI 131443Z AUTO 14010KT 10SM CLR 21/16 A2987 RMK AO2 T02140162

FAA Disclaimer: The data displayed is for advisory purposes only and is not to be used for flight planning or operations.